FYWW

Windhoek, Town MET Airport

Windhoek, Namibia
METAR FYWW 220300Z AUTO 11007KT //// // ////// 19/M06 Q1022
Observed Flight Rules
Sep-22 @ 03:00 UTC (26 minutes ago)
Wind
110° at 7 knots
Temperatures Readings
Current 19°C / 66°F
Dewpoint -6°C / 21°F
Humidity 18%
Altimeter 30.18" Hg
Pressure 1022 hPa
Elevation 1725
METAR FYWW 220300Z AUTO 11007KT //// // ////// 19/M06 Q1022
Observed Flight Rules
Sep-22 @ 03:00 UTC
(26 minutes ago)
Wind
110° at 7 knots
Temperature Dewpoint
19°C / 66°F -6°C / 21°F
Humidity Altimeter Pressure
18% 30.18" Hg 1022 hPa